Time,TemperatureF,DewpointF,PressureIn,WindDirection,WindDirectionDegrees,WindSpeedMPH,WindSpeedGustMPH,Humidity,HourlyPrecipIn,Conditions,Clouds,dailyrainin,SoftwareType,DateUTC
2013-07-09 00:01:00,70.6,57.8,29.98,West,272,0.0,9.0,64,0.00,,,0.00,Weather View 32 v70,2013-07-09 07:01:00,
2013-07-09 00:06:00,70.6,57.8,29.98,West,272,0.0,9.0,64,0.00,,,0.00,Weather View 32 v70,2013-07-09 07:06:00,
2013-07-09 00:11:00,70.4,57.6,29.98,West,272,0.0,7.0,64,0.00,,,0.00,Weather View 32 v70,2013-07-09 07:11:00,
2013-07-09 00:16:00,70.1,57.8,29.98,West,272,0.0,6.0,65,0.00,,,0.00,Weather View 32 v70,2013-07-09 07:16:00,
2013-07-09 00:21:00,69.8,57.5,29.99,West,272,0.0,5.0,65,0.00,,,0.00,Weather View 32 v70,2013-07-09 07:21:00,
2013-07-09 00:26:00,69.6,57.7,29.99,West,272,0.0,5.0,66,0.00,,,0.00,Weather View 32 v70,2013-07-09 07:26:00,
2013-07-09 00:31:00,69.3,57.4,29.99,West,272,1.0,5.0,66,0.00,,,0.00,Weather View 32 v70,2013-07-09 07:31:00,
2013-07-09 00:36:00,69.3,57.8,29.99,West,272,0.0,5.0,67,0.00,,,0.00,Weather View 32 v70,2013-07-09 07:36:00,
2013-07-09 00:41:00,68.9,58.3,29.99,West,272,0.0,5.0,69,0.00,,,0.00,Weather View 32 v70,2013-07-09 07:41:00,
2013-07-09 00:46:00,68.8,58.6,29.99,West,272,0.0,5.0,70,0.00,,,0.00,Weather View 32 v70,2013-07-09 07:46:00,
2013-07-09 00:53:00,68.4,58.2,29.99,West,272,0.0,5.0,70,0.00,,,0.00,Weather View 32 v70,2013-07-09 07:53:00,
2013-07-09 00:58:00,68.6,58.0,29.99,West,272,1.0,4.0,69,0.00,,,0.00,Weather View 32 v70,2013-07-09 07:58:00,
2013-07-09 01:03:00,68.4,57.8,29.99,West,272,0.0,4.0,69,0.00,,,0.00,Weather View 32 v70,2013-07-09 08:03:00,
2013-07-09 01:08:00,68.3,58.1,29.99,West,272,1.0,4.0,70,0.00,,,0.00,Weather View 32 v70,2013-07-09 08:08:00,
2013-07-09 01:12:00,67.9,57.3,29.99,West,272,0.0,4.0,69,0.00,,,0.00,Weather View 32 v70,2013-07-09 08:12:00,
2013-07-09 01:17:00,67.3,56.3,29.99,West,272,0.0,4.0,68,0.00,,,0.00,Weather View 32 v70,2013-07-09 08:17:00,
2013-07-09 01:22:00,66.6,56.1,29.99,West,272,0.0,4.0,69,0.00,,,0.00,Weather View 32 v70,2013-07-09 08:22:00,
2013-07-09 01:27:00,66.1,56.4,29.99,West,272,0.0,4.0,71,0.00,,,0.00,Weather View 32 v70,2013-07-09 08:27:00,
2013-07-09 01:32:00,65.8,56.1,29.99,West,272,0.0,4.0,71,0.00,,,0.00,Weather View 32 v70,2013-07-09 08:32:00,
2013-07-09 01:37:00,65.5,55.8,30.00,West,272,0.0,4.0,71,0.00,,,0.00,Weather View 32 v70,2013-07-09 08:37:00,
2013-07-09 01:42:00,64.8,54.4,30.00,West,272,0.0,4.0,69,0.00,,,0.00,Weather View 32 v70,2013-07-09 08:42:00,
2013-07-09 01:47:00,64.3,53.9,30.00,West,272,0.0,4.0,69,0.00,,,0.00,Weather View 32 v70,2013-07-09 08:47:00,
2013-07-09 01:52:00,64.0,54.0,30.00,West,272,0.0,2.0,70,0.00,,,0.00,Weather View 32 v70,2013-07-09 08:52:00,
2013-07-09 01:57:00,63.7,54.1,30.00,West,272,0.0,2.0,71,0.00,,,0.00,Weather View 32 v70,2013-07-09 08:57:00,
2013-07-09 02:02:00,63.7,55.6,30.00,West,272,0.0,1.0,75,0.00,,,0.00,Weather View 32 v70,2013-07-09 09:02:00,
2013-07-09 02:07:00,63.7,56.0,30.00,West,272,0.0,1.0,76,0.00,,,0.00,Weather View 32 v70,2013-07-09 09:07:00,
2013-07-09 02:12:00,63.4,54.6,30.00,West,272,0.0,1.0,73,0.00,,,0.00,Weather View 32 v70,2013-07-09 09:12:00,
2013-07-09 02:17:00,62.9,53.7,30.00,West,272,0.0,1.0,72,0.00,,,0.00,Weather View 32 v70,2013-07-09 09:17:00,
2013-07-09 02:22:00,62.4,52.5,30.00,West,272,0.0,1.0,70,0.00,,,0.00,Weather View 32 v70,2013-07-09 09:22:00,
2013-07-09 02:27:00,62.1,52.2,30.00,West,272,0.0,1.0,70,0.00,,,0.00,Weather View 32 v70,2013-07-09 09:27:00,
2013-07-09 02:32:00,61.8,51.5,30.01,West,272,0.0,1.0,69,0.00,,,0.00,Weather View 32 v70,2013-07-09 09:32:00,
2013-07-09 02:37:00,61.3,51.4,30.01,West,272,0.0,1.0,70,0.00,,,0.00,Weather View 32 v70,2013-07-09 09:37:00,
2013-07-09 02:42:00,61.0,51.5,30.01,West,272,0.0,0.0,71,0.00,,,0.00,Weather View 32 v70,2013-07-09 09:42:00,
2013-07-09 02:47:00,60.7,51.6,30.01,West,272,0.0,0.0,72,0.00,,,0.00,Weather View 32 v70,2013-07-09 09:47:00,
2013-07-09 02:52:00,60.4,51.7,30.01,West,272,0.0,0.0,73,0.00,,,0.00,Weather View 32 v70,2013-07-09 09:52:00,
2013-07-09 02:57:00,60.1,51.4,30.01,West,272,0.0,0.0,73,0.00,,,0.00,Weather View 32 v70,2013-07-09 09:57:00,
2013-07-09 03:02:00,59.9,51.6,30.01,West,272,0.0,0.0,74,0.00,,,0.00,Weather View 32 v70,2013-07-09 10:02:00,
2013-07-09 03:07:00,59.6,51.3,30.01,West,272,0.0,0.0,74,0.00,,,0.00,Weather View 32 v70,2013-07-09 10:07:00,
2013-07-09 03:12:00,59.8,52.9,30.01,West,272,0.0,0.0,78,0.00,,,0.00,Weather View 32 v70,2013-07-09 10:12:00,
2013-07-09 03:17:00,59.9,52.7,30.01,West,272,0.0,0.0,77,0.00,,,0.00,Weather View 32 v70,2013-07-09 10:17:00,
2013-07-09 03:22:00,59.9,53.0,30.01,West,272,0.0,0.0,78,0.00,,,0.00,Weather View 32 v70,2013-07-09 10:22:00,
2013-07-09 03:27:00,59.6,51.6,30.01,West,272,0.0,0.0,75,0.00,,,0.00,Weather View 32 v70,2013-07-09 10:27:00,
2013-07-09 03:32:00,59.3,51.4,30.01,West,272,0.0,0.0,75,0.00,,,0.00,Weather View 32 v70,2013-07-09 10:32:00,
2013-07-09 03:37:00,59.0,50.7,30.01,West,272,0.0,0.0,74,0.00,,,0.00,Weather View 32 v70,2013-07-09 10:37:00,
2013-07-09 03:42:00,58.9,50.6,30.01,West,272,0.0,0.0,74,0.00,,,0.00,Weather View 32 v70,2013-07-09 10:42:00,
2013-07-09 03:47:00,58.7,50.4,30.01,West,272,0.0,0.0,74,0.00,,,0.00,Weather View 32 v70,2013-07-09 10:47:00,
2013-07-09 03:52:00,58.4,50.1,30.02,West,272,0.0,0.0,74,0.00,,,0.00,Weather View 32 v70,2013-07-09 10:52:00,
2013-07-09 03:57:00,58.3,50.0,30.01,West,272,0.0,0.0,74,0.00,,,0.00,Weather View 32 v70,2013-07-09 10:57:00,
2013-07-09 04:02:00,58.0,50.1,30.02,West,272,0.0,0.0,75,0.00,,,0.00,Weather View 32 v70,2013-07-09 11:02:00,
2013-07-09 04:07:00,57.6,50.1,30.02,West,272,0.0,0.0,76,0.00,,,0.00,Weather View 32 v70,2013-07-09 11:07:00,
2013-07-09 04:12:00,57.5,50.3,30.02,West,272,0.0,0.0,77,0.00,,,0.00,Weather View 32 v70,2013-07-09 11:12:00,
2013-07-09 04:17:00,57.3,50.5,30.02,West,272,0.0,0.0,78,0.00,,,0.00,Weather View 32 v70,2013-07-09 11:17:00,
2013-07-09 04:22:00,57.2,50.4,30.02,West,272,0.0,0.0,78,0.00,,,0.00,Weather View 32 v70,2013-07-09 11:22:00,
2013-07-09 04:27:00,57.0,50.2,30.02,West,272,0.0,0.0,78,0.00,,,0.00,Weather View 32 v70,2013-07-09 11:27:00,
2013-07-09 04:32:00,57.0,50.2,30.02,West,272,0.0,0.0,78,0.00,,,0.00,Weather View 32 v70,2013-07-09 11:32:00,
2013-07-09 04:37:00,57.0,49.8,30.02,West,272,0.0,0.0,77,0.00,,,0.00,Weather View 32 v70,2013-07-09 11:37:00,
2013-07-09 04:42:00,57.2,50.0,30.02,West,272,0.0,0.0,77,0.00,,,0.00,Weather View 32 v70,2013-07-09 11:42:00,
2013-07-09 04:47:00,57.0,49.8,30.02,West,272,0.0,0.0,77,0.00,,,0.00,Weather View 32 v70,2013-07-09 11:47:00,
2013-07-09 04:52:00,57.0,49.8,30.02,West,272,0.0,0.0,77,0.00,,,0.00,Weather View 32 v70,2013-07-09 11:52:00,
2013-07-09 04:57:00,56.9,49.7,30.02,West,272,0.0,0.0,77,0.00,,,0.00,Weather View 32 v70,2013-07-09 11:57:00,
2013-07-09 05:02:00,56.9,49.7,30.03,West,272,0.0,0.0,77,0.00,,,0.00,Weather View 32 v70,2013-07-09 12:02:00,
2013-07-09 05:07:00,56.7,49.6,30.03,West,272,0.0,0.0,77,0.00,,,0.00,Weather View 32 v70,2013-07-09 12:07:00,
2013-07-09 05:12:00,56.6,49.5,30.03,West,272,0.0,0.0,77,0.00,,,0.00,Weather View 32 v70,2013-07-09 12:12:00,
2013-07-09 05:17:00,56.6,49.5,30.03,West,272,0.0,0.0,77,0.00,,,0.00,Weather View 32 v70,2013-07-09 12:17:00,
2013-07-09 05:22:00,56.3,49.2,30.03,West,272,0.0,0.0,77,0.00,,,0.00,Weather View 32 v70,2013-07-09 12:22:00,
2013-07-09 05:27:00,56.0,49.2,30.03,West,272,0.0,0.0,78,0.00,,,0.00,Weather View 32 v70,2013-07-09 12:27:00,
2013-07-09 05:32:00,55.7,48.9,30.03,West,272,0.0,0.0,78,0.00,,,0.00,Weather View 32 v70,2013-07-09 12:32:00,
2013-07-09 05:37:00,55.6,48.8,30.03,West,272,0.0,0.0,78,0.00,,,0.00,Weather View 32 v70,2013-07-09 12:37:00,
2013-07-09 05:42:00,55.4,49.0,30.03,West,272,0.0,0.0,79,0.00,,,0.00,Weather View 32 v70,2013-07-09 12:42:00,
2013-07-09 05:47:00,55.3,49.2,30.03,West,272,0.0,0.0,80,0.00,,,0.00,Weather View 32 v70,2013-07-09 12:47:00,
2013-07-09 05:52:00,55.3,49.2,30.04,West,272,0.0,0.0,80,0.00,,,0.00,Weather View 32 v70,2013-07-09 12:52:00,
2013-07-09 05:57:00,55.3,49.2,30.04,West,272,0.0,0.0,80,0.00,,,0.00,Weather View 32 v70,2013-07-09 12:57:00,
2013-07-09 06:02:00,55.4,49.7,30.04,West,272,0.0,0.0,81,0.00,,,0.00,Weather View 32 v70,2013-07-09 13:02:00,
2013-07-09 06:07:00,55.6,49.5,30.04,West,272,0.0,0.0,80,0.00,,,0.00,Weather View 32 v70,2013-07-09 13:07:00,
2013-07-09 06:12:00,55.9,49.5,30.04,West,272,0.0,0.0,79,0.00,,,0.00,Weather View 32 v70,2013-07-09 13:12:00,
2013-07-09 06:17:00,56.3,49.5,30.04,West,272,0.0,0.0,78,0.00,,,0.00,Weather View 32 v70,2013-07-09 13:17:00,
2013-07-09 06:22:00,56.7,49.6,30.04,West,272,0.0,0.0,77,0.00,,,0.00,Weather View 32 v70,2013-07-09 13:22:00,
2013-07-09 06:27:00,57.2,50.0,30.04,West,272,0.0,0.0,77,0.00,,,0.00,Weather View 32 v70,2013-07-09 13:27:00,
2013-07-09 06:32:00,57.6,49.7,30.05,West,272,0.0,0.0,75,0.00,,,0.00,Weather View 32 v70,2013-07-09 13:32:00,
2013-07-09 06:37:00,58.3,49.7,30.05,West,272,0.0,0.0,73,0.00,,,0.00,Weather View 32 v70,2013-07-09 13:37:00,
2013-07-09 06:42:00,58.7,48.9,30.05,West,272,0.0,0.0,70,0.00,,,0.00,Weather View 32 v70,2013-07-09 13:42:00,
2013-07-09 06:47:00,59.0,48.8,30.05,West,272,0.0,0.0,69,0.00,,,0.00,Weather View 32 v70,2013-07-09 13:47:00,
2013-07-09 06:52:00,59.3,49.1,30.05,West,272,0.0,0.0,69,0.00,,,0.00,Weather View 32 v70,2013-07-09 13:52:00,
2013-07-09 06:57:00,59.6,50.2,30.05,West,272,0.0,0.0,71,0.00,,,0.00,Weather View 32 v70,2013-07-09 13:57:00,
2013-07-09 07:02:00,60.1,50.6,30.05,West,272,0.0,0.0,71,0.00,,,0.00,Weather View 32 v70,2013-07-09 14:02:00,
2013-07-09 07:07:00,60.9,51.8,30.05,West,272,0.0,0.0,72,0.00,,,0.00,Weather View 32 v70,2013-07-09 14:07:00,
2013-07-09 07:12:00,61.5,52.7,30.05,West,272,0.0,0.0,73,0.00,,,0.00,Weather View 32 v70,2013-07-09 14:12:00,
2013-07-09 07:17:00,62.4,52.5,30.05,West,272,0.0,0.0,70,0.00,,,0.00,Weather View 32 v70,2013-07-09 14:17:00,
2013-07-09 07:22:00,63.2,54.0,30.05,West,272,0.0,0.0,72,0.00,,,0.00,Weather View 32 v70,2013-07-09 14:22:00,
2013-07-09 07:27:00,64.0,54.4,30.06,West,272,0.0,0.0,71,0.00,,,0.00,Weather View 32 v70,2013-07-09 14:27:00,
2013-07-09 07:32:00,64.2,55.3,30.06,West,272,0.0,0.0,73,0.00,,,0.00,Weather View 32 v70,2013-07-09 14:32:00,
2013-07-09 07:37:00,64.5,55.6,30.06,West,272,0.0,0.0,73,0.00,,,0.00,Weather View 32 v70,2013-07-09 14:37:00,
2013-07-09 07:42:00,64.8,55.9,30.06,West,272,0.0,0.0,73,0.00,,,0.00,Weather View 32 v70,2013-07-09 14:42:00,
2013-07-09 07:47:00,64.8,55.9,30.06,West,272,0.0,0.0,73,0.00,,,0.00,Weather View 32 v70,2013-07-09 14:47:00,
2013-07-09 07:52:00,65.0,56.1,30.06,West,272,0.0,0.0,73,0.00,,,0.00,Weather View 32 v70,2013-07-09 14:52:00,
2013-07-09 07:57:00,65.2,55.9,30.06,West,272,0.0,1.0,72,0.00,,,0.00,Weather View 32 v70,2013-07-09 14:57:00,
2013-07-09 08:02:00,65.3,56.4,30.06,West,272,2.0,2.0,73,0.00,,,0.00,Weather View 32 v70,2013-07-09 15:02:00,
2013-07-09 08:07:00,65.2,56.3,30.06,West,272,0.0,3.0,73,0.00,,,0.00,Weather View 32 v70,2013-07-09 15:07:00,
2013-07-09 08:12:00,65.3,56.4,30.06,West,272,3.0,3.0,73,0.00,,,0.00,Weather View 32 v70,2013-07-09 15:12:00,
2013-07-09 08:17:00,65.6,56.3,30.06,West,273,1.0,3.0,72,0.00,,,0.00,Weather View 32 v70,2013-07-09 15:17:00,
2013-07-09 08:22:00,65.8,56.5,30.06,West,272,1.0,3.0,72,0.00,,,0.00,Weather View 32 v70,2013-07-09 15:22:00,
2013-07-09 08:27:00,66.1,56.4,30.06,West,273,2.0,3.0,71,0.00,,,0.00,Weather View 32 v70,2013-07-09 15:27:00,
2013-07-09 08:32:00,66.3,56.6,30.05,West,273,1.0,3.0,71,0.00,,,0.00,Weather View 32 v70,2013-07-09 15:32:00,
2013-07-09 08:37:00,66.4,56.3,30.05,West,273,0.0,3.0,70,0.00,,,0.00,Weather View 32 v70,2013-07-09 15:37:00,
2013-07-09 08:42:00,66.9,56.8,30.05,West,273,0.0,3.0,70,0.00,,,0.00,Weather View 32 v70,2013-07-09 15:42:00,
2013-07-09 08:47:00,68.1,55.9,30.05,West,273,0.0,3.0,65,0.00,,,0.00,Weather View 32 v70,2013-07-09 15:47:00,
2013-07-09 08:52:00,69.1,55.5,30.05,West,273,3.0,3.0,62,0.00,,,0.00,Weather View 32 v70,2013-07-09 15:52:00,
2013-07-09 08:57:00,69.1,53.2,30.05,West,273,0.0,3.0,57,0.00,,,0.00,Weather View 32 v70,2013-07-09 15:57:00,
2013-07-09 09:02:00,69.8,53.8,30.05,West,273,0.0,3.0,57,0.00,,,0.00,Weather View 32 v70,2013-07-09 16:02:00,
2013-07-09 09:07:00,70.4,53.9,30.05,West,273,0.0,3.0,56,0.00,,,0.00,Weather View 32 v70,2013-07-09 16:07:00,
2013-07-09 09:12:00,70.8,53.8,30.05,West,273,0.0,3.0,55,0.00,,,0.00,Weather View 32 v70,2013-07-09 16:12:00,
2013-07-09 09:17:00,71.1,54.1,30.05,West,273,0.0,3.0,55,0.00,,,0.00,Weather View 32 v70,2013-07-09 16:17:00,
2013-07-09 09:22:00,72.0,52.3,30.05,West,261,1.0,3.0,50,0.00,,,0.00,Weather View 32 v70,2013-07-09 16:22:00,
2013-07-09 09:27:00,72.5,53.3,30.04,West,261,0.0,4.0,51,0.00,,,0.00,Weather View 32 v70,2013-07-09 16:27:00,
2013-07-09 09:32:00,72.7,51.8,30.04,West,261,0.0,4.0,48,0.00,,,0.00,Weather View 32 v70,2013-07-09 16:32:00,
2013-07-09 09:37:00,72.8,53.0,30.04,West,261,0.0,4.0,50,0.00,,,0.00,Weather View 32 v70,2013-07-09 16:37:00,
2013-07-09 09:42:00,73.7,54.4,30.04,West,261,0.0,4.0,51,0.00,,,0.00,Weather View 32 v70,2013-07-09 16:42:00,
2013-07-09 09:47:00,73.7,53.3,30.04,West,261,1.0,4.0,49,0.00,,,0.00,Weather View 32 v70,2013-07-09 16:47:00,
2013-07-09 09:52:00,73.7,54.9,30.04,West,261,0.0,4.0,52,0.00,,,0.00,Weather View 32 v70,2013-07-09 16:52:00,
2013-07-09 09:57:00,73.9,57.2,30.03,West,261,0.0,4.0,56,0.00,,,0.00,Weather View 32 v70,2013-07-09 16:57:00,
2013-07-09 10:02:00,74.4,56.6,30.03,West,265,2.0,4.0,54,0.00,,,0.00,Weather View 32 v70,2013-07-09 17:02:00,
2013-07-09 10:07:00,74.6,56.8,30.03,West,265,1.0,4.0,54,0.00,,,0.00,Weather View 32 v70,2013-07-09 17:07:00,
2013-07-09 10:12:00,75.1,57.3,30.03,West,265,3.0,4.0,54,0.00,,,0.00,Weather View 32 v70,2013-07-09 17:12:00,
2013-07-09 10:17:00,74.9,57.1,30.03,West,265,1.0,4.0,54,0.00,,,0.00,Weather View 32 v70,2013-07-09 17:17:00,
2013-07-09 10:22:00,75.1,57.3,30.02,West,281,1.0,4.0,54,0.00,,,0.00,Weather View 32 v70,2013-07-09 17:22:00,
2013-07-09 10:27:00,75.3,56.9,30.02,West,281,0.0,4.0,53,0.00,,,0.00,Weather View 32 v70,2013-07-09 17:27:00,
2013-07-09 10:32:00,75.4,57.5,30.02,WNW,283,1.0,4.0,54,0.00,,,0.00,Weather View 32 v70,2013-07-09 17:32:00,
2013-07-09 10:37:00,76.1,57.1,30.02,WNW,283,1.0,4.0,52,0.00,,,0.00,Weather View 32 v70,2013-07-09 17:37:00,
2013-07-09 10:42:00,77.0,58.0,30.02,WNW,283,2.0,4.0,52,0.00,,,0.00,Weather View 32 v70,2013-07-09 17:42:00,
2013-07-09 10:47:00,77.7,57.5,30.02,WNW,286,0.0,4.0,50,0.00,,,0.00,Weather View 32 v70,2013-07-09 17:47:00,
2013-07-09 10:52:00,78.1,57.3,30.01,WNW,286,1.0,4.0,49,0.00,,,0.00,Weather View 32 v70,2013-07-09 17:52:00,
2013-07-09 10:57:00,77.7,57.0,30.01,WNW,286,0.0,4.0,49,0.00,,,0.00,Weather View 32 v70,2013-07-09 17:57:00,
2013-07-09 11:02:00,77.7,57.0,30.01,WNW,287,1.0,4.0,49,0.00,,,0.00,Weather View 32 v70,2013-07-09 18:02:00,
2013-07-09 11:07:00,78.3,57.5,30.01,WNW,289,0.0,4.0,49,0.00,,,0.00,Weather View 32 v70,2013-07-09 18:07:00,
2013-07-09 11:12:00,78.5,57.7,30.01,WNW,290,2.0,4.0,49,0.00,,,0.00,Weather View 32 v70,2013-07-09 18:12:00,
2013-07-09 11:17:00,78.6,57.8,30.01,WNW,292,1.0,4.0,49,0.00,,,0.00,Weather View 32 v70,2013-07-09 18:17:00,
2013-07-09 11:22:00,78.8,58.0,30.00,WNW,299,1.0,4.0,49,0.00,,,0.00,Weather View 32 v70,2013-07-09 18:22:00,
2013-07-09 11:27:00,78.8,57.4,30.00,WNW,299,1.0,5.0,48,0.00,,,0.00,Weather View 32 v70,2013-07-09 18:27:00,
2013-07-09 11:32:00,78.8,58.5,30.00,WNW,302,1.0,5.0,50,0.00,,,0.00,Weather View 32 v70,2013-07-09 18:32:00,
2013-07-09 11:37:00,79.4,57.9,30.00,WNW,302,3.0,5.0,48,0.00,,,0.00,Weather View 32 v70,2013-07-09 18:37:00,
2013-07-09 11:42:00,79.8,57.1,30.00,WNW,302,2.0,5.0,46,0.00,,,0.00,Weather View 32 v70,2013-07-09 18:42:00,
2013-07-09 11:47:00,79.9,59.0,29.99,WNW,302,3.0,5.0,49,0.00,,,0.00,Weather View 32 v70,2013-07-09 18:47:00,
2013-07-09 11:52:00,79.9,58.4,29.99,WNW,303,5.0,5.0,48,0.00,,,0.00,Weather View 32 v70,2013-07-09 18:52:00,
2013-07-09 11:57:00,79.8,57.7,29.99,WNW,299,2.0,6.0,47,0.00,,,0.00,Weather View 32 v70,2013-07-09 18:57:00,
2013-07-09 12:02:00,80.1,57.4,29.99,WNW,301,7.0,7.0,46,0.00,,,0.00,Weather View 32 v70,2013-07-09 19:02:00,
2013-07-09 12:07:00,80.1,58.0,29.99,WNW,302,1.0,7.0,47,0.00,,,0.00,Weather View 32 v70,2013-07-09 19:07:00,
2013-07-09 12:12:00,80.9,59.3,29.99,WNW,302,3.0,7.0,48,0.00,,,0.00,Weather View 32 v70,2013-07-09 19:12:00,
2013-07-09 12:17:00,81.6,59.3,29.98,WNW,296,3.0,7.0,47,0.00,,,0.00,Weather View 32 v70,2013-07-09 19:17:00,
2013-07-09 12:22:00,82.0,59.1,29.98,WNW,299,4.0,7.0,46,0.00,,,0.00,Weather View 32 v70,2013-07-09 19:22:00,
2013-07-09 12:27:00,82.0,59.7,29.98,WNW,300,2.0,7.0,47,0.00,,,0.00,Weather View 32 v70,2013-07-09 19:27:00,
2013-07-09 12:32:00,82.2,59.3,29.98,NW,306,3.0,8.0,46,0.00,,,0.00,Weather View 32 v70,2013-07-09 19:32:00,
2013-07-09 12:37:00,82.4,58.2,29.97,NW,308,2.0,8.0,44,0.00,,,0.00,Weather View 32 v70,2013-07-09 19:37:00,
2013-07-09 12:42:00,82.2,58.7,29.97,NW,314,6.0,9.0,45,0.00,,,0.00,Weather View 32 v70,2013-07-09 19:42:00,
2013-07-09 12:47:00,82.2,58.0,29.97,NW,324,8.0,9.0,44,0.00,,,0.00,Weather View 32 v70,2013-07-09 19:47:00,
2013-07-09 12:52:00,82.8,59.8,29.97,NW,304,7.0,10.0,46,0.00,,,0.00,Weather View 32 v70,2013-07-09 19:52:00,
2013-07-09 12:57:00,82.8,59.8,29.97,WNW,301,5.0,10.0,46,0.00,,,0.00,Weather View 32 v70,2013-07-09 19:57:00,
2013-07-09 13:02:00,83.2,57.6,29.97,WNW,294,3.0,11.0,42,0.00,,,0.00,Weather View 32 v70,2013-07-09 20:02:00,
2013-07-09 13:07:00,83.4,58.5,29.96,NW,304,5.0,11.0,43,0.00,,,0.00,Weather View 32 v70,2013-07-09 20:07:00,
2013-07-09 13:12:00,83.6,58.0,29.96,WNW,300,3.0,13.0,42,0.00,,,0.00,Weather View 32 v70,2013-07-09 20:12:00,
2013-07-09 13:17:00,83.8,58.8,29.96,NW,314,6.0,13.0,43,0.00,,,0.00,Weather View 32 v70,2013-07-09 20:17:00,
2013-07-09 13:22:00,84.0,58.4,29.96,NW,304,4.0,13.0,42,0.00,,,0.00,Weather View 32 v70,2013-07-09 20:22:00,
2013-07-09 13:27:00,84.1,59.1,29.96,WNW,302,4.0,13.0,43,0.00,,,0.00,Weather View 32 v70,2013-07-09 20:27:00,
2013-07-09 13:32:00,84.1,58.4,29.96,WNW,298,4.0,13.0,42,0.00,,,0.00,Weather View 32 v70,2013-07-09 20:32:00,
2013-07-09 13:37:00,84.7,58.3,29.96,WNW,302,6.0,13.0,41,0.00,,,0.00,Weather View 32 v70,2013-07-09 20:37:00,
2013-07-09 13:42:00,85.1,58.7,29.95,NW,306,3.0,13.0,41,0.00,,,0.00,Weather View 32 v70,2013-07-09 20:42:00,
2013-07-09 13:47:00,85.7,58.5,29.95,WNW,292,3.0,13.0,40,0.00,,,0.00,Weather View 32 v70,2013-07-09 20:47:00,
2013-07-09 13:52:00,85.7,60.5,29.95,WNW,291,4.0,13.0,43,0.00,,,0.00,Weather View 32 v70,2013-07-09 20:52:00,
2013-07-09 13:57:00,85.7,57.8,29.95,WNW,303,6.0,13.0,39,0.00,,,0.00,Weather View 32 v70,2013-07-09 20:57:00,
2013-07-09 14:02:00,85.5,59.7,29.95,WNW,284,3.0,13.0,42,0.00,,,0.00,Weather View 32 v70,2013-07-09 21:02:00,
2013-07-09 14:07:00,85.9,58.0,29.95,WNW,295,5.0,13.0,39,0.00,,,0.00,Weather View 32 v70,2013-07-09 21:07:00,
2013-07-09 14:12:00,86.3,57.6,29.94,NW,308,10.0,13.0,38,0.00,,,0.00,Weather View 32 v70,2013-07-09 21:12:00,
2013-07-09 14:17:00,86.3,59.0,29.94,West,281,4.0,13.0,40,0.00,,,0.00,Weather View 32 v70,2013-07-09 21:17:00,
2013-07-09 14:22:00,86.5,58.5,29.94,West,268,7.0,13.0,39,0.00,,,0.00,Weather View 32 v70,2013-07-09 21:22:00,
2013-07-09 14:27:00,87.0,59.0,29.94,WNW,300,5.0,13.0,39,0.00,,,0.00,Weather View 32 v70,2013-07-09 21:27:00,
2013-07-09 14:32:00,87.0,58.2,29.94,West,271,4.0,13.0,38,0.00,,,0.00,Weather View 32 v70,2013-07-09 21:32:00,
2013-07-09 14:37:00,87.2,58.4,29.94,WSW,253,6.0,13.0,38,0.00,,,0.00,Weather View 32 v70,2013-07-09 21:37:00,
2013-07-09 14:42:00,87.4,57.8,29.94,NW,307,2.0,14.0,37,0.00,,,0.00,Weather View 32 v70,2013-07-09 21:42:00,
2013-07-09 14:47:00,87.2,57.7,29.93,West,269,6.0,14.0,37,0.00,,,0.00,Weather View 32 v70,2013-07-09 21:47:00,
2013-07-09 14:52:00,87.4,58.6,29.93,WNW,289,9.0,14.0,38,0.00,,,0.00,Weather View 32 v70,2013-07-09 21:52:00,
2013-07-09 14:57:00,87.6,57.2,29.93,NW,318,5.0,14.0,36,0.00,,,0.00,Weather View 32 v70,2013-07-09 21:57:00,
2013-07-09 15:02:00,87.8,58.2,29.93,West,281,3.0,14.0,37,0.00,,,0.00,Weather View 32 v70,2013-07-09 22:02:00,
2013-07-09 15:07:00,88.0,58.4,29.93,West,265,8.0,14.0,37,0.00,,,0.00,Weather View 32 v70,2013-07-09 22:07:00,
2013-07-09 15:12:00,87.8,58.2,29.93,NW,311,11.0,14.0,37,0.00,,,0.00,Weather View 32 v70,2013-07-09 22:12:00,
2013-07-09 15:17:00,87.6,58.8,29.93,NW,304,11.0,15.0,38,0.00,,,0.00,Weather View 32 v70,2013-07-09 22:17:00,
2013-07-09 15:22:00,88.2,57.8,29.92,NW,310,4.0,15.0,36,0.00,,,0.00,Weather View 32 v70,2013-07-09 22:22:00,
2013-07-09 15:27:00,88.4,58.7,29.92,WNW,301,3.0,15.0,37,0.00,,,0.00,Weather View 32 v70,2013-07-09 22:27:00,
2013-07-09 15:32:00,88.6,58.1,29.92,NW,309,3.0,15.0,36,0.00,,,0.00,Weather View 32 v70,2013-07-09 22:32:00,
2013-07-09 15:37:00,89.0,57.7,29.92,WNW,303,3.0,15.0,35,0.00,,,0.00,Weather View 32 v70,2013-07-09 22:37:00,
2013-07-09 15:42:00,89.0,56.9,29.92,NW,317,11.0,15.0,34,0.00,,,0.00,Weather View 32 v70,2013-07-09 22:42:00,
2013-07-09 15:47:00,89.3,58.0,29.92,WNW,291,5.0,15.0,35,0.00,,,0.00,Weather View 32 v70,2013-07-09 22:47:00,
2013-07-09 15:52:00,89.7,58.3,29.92,NW,313,4.0,15.0,35,0.00,,,0.00,Weather View 32 v70,2013-07-09 22:52:00,
2013-07-09 15:57:00,89.9,58.5,29.91,West,274,6.0,15.0,35,0.00,,,0.00,Weather View 32 v70,2013-07-09 22:57:00,
2013-07-09 16:02:00,89.7,57.5,29.91,WNW,285,6.0,15.0,34,0.00,,,0.00,Weather View 32 v70,2013-07-09 23:02:00,
2013-07-09 16:07:00,89.9,57.7,29.91,NW,310,12.0,15.0,34,0.00,,,0.00,Weather View 32 v70,2013-07-09 23:07:00,
2013-07-09 16:12:00,89.9,57.7,29.91,WNW,299,8.0,15.0,34,0.00,,,0.00,Weather View 32 v70,2013-07-09 23:12:00,
2013-07-09 16:17:00,89.7,57.5,29.91,WNW,298,7.0,14.0,34,0.00,,,0.00,Weather View 32 v70,2013-07-09 23:17:00,
2013-07-09 16:22:00,89.7,58.3,29.91,WNW,298,9.0,14.0,35,0.00,,,0.00,Weather View 32 v70,2013-07-09 23:22:00,
2013-07-09 16:27:00,89.7,58.3,29.91,WNW,296,6.0,14.0,35,0.00,,,0.00,Weather View 32 v70,2013-07-09 23:27:00,
2013-07-09 16:32:00,89.7,58.3,29.91,NW,311,4.0,14.0,35,0.00,,,0.00,Weather View 32 v70,2013-07-09 23:32:00,
2013-07-09 16:37:00,89.7,58.3,29.90,West,275,15.0,15.0,35,0.00,,,0.00,Weather View 32 v70,2013-07-09 23:37:00,
2013-07-09 16:42:00,89.0,59.2,29.90,SW,217,1.0,17.0,37,0.00,,,0.00,Weather View 32 v70,2013-07-09 23:42:00,
2013-07-09 16:47:00,88.8,59.1,29.90,West,266,7.0,17.0,37,0.00,,,0.00,Weather View 32 v70,2013-07-09 23:47:00,
2013-07-09 16:52:00,88.8,60.6,29.90,WNW,298,5.0,17.0,39,0.00,,,0.00,Weather View 32 v70,2013-07-09 23:52:00,
2013-07-09 16:57:00,89.0,61.4,29.89,NW,305,3.0,17.0,40,0.00,,,0.00,Weather View 32 v70,2013-07-09 23:57:00,
2013-07-09 17:02:00,88.8,60.6,29.90,West,275,9.0,17.0,39,0.00,,,0.00,Weather View 32 v70,2013-07-10 00:02:00,
2013-07-09 17:07:00,88.4,60.9,29.89,West,281,3.0,18.0,40,0.00,,,0.00,Weather View 32 v70,2013-07-10 00:07:00,
2013-07-09 17:12:00,88.2,60.7,29.89,WNW,294,11.0,18.0,40,0.00,,,0.00,Weather View 32 v70,2013-07-10 00:12:00,
2013-07-09 17:17:00,88.2,60.7,29.89,WNW,292,2.0,18.0,40,0.00,,,0.00,Weather View 32 v70,2013-07-10 00:17:00,
2013-07-09 17:22:00,88.4,60.9,29.89,West,268,9.0,18.0,40,0.00,,,0.00,Weather View 32 v70,2013-07-10 00:22:00,
2013-07-09 17:27:00,88.2,60.0,29.89,NW,304,5.0,18.0,39,0.00,,,0.00,Weather View 32 v70,2013-07-10 00:27:00,
2013-07-09 17:32:00,88.2,60.0,29.89,West,265,6.0,18.0,39,0.00,,,0.00,Weather View 32 v70,2013-07-10 00:32:00,
2013-07-09 17:37:00,88.0,59.8,29.89,West,272,5.0,20.0,39,0.00,,,0.00,Weather View 32 v70,2013-07-10 00:37:00,
2013-07-09 17:42:00,88.0,59.8,29.88,NW,312,11.0,20.0,39,0.00,,,0.00,Weather View 32 v70,2013-07-10 00:42:00,
2013-07-09 17:47:00,88.0,59.8,29.88,WNW,298,11.0,20.0,39,0.00,,,0.00,Weather View 32 v70,2013-07-10 00:47:00,
2013-07-09 17:52:00,88.0,59.8,29.88,NW,307,9.0,20.0,39,0.00,,,0.00,Weather View 32 v70,2013-07-10 00:52:00,
2013-07-09 17:57:00,88.0,60.6,29.88,WNW,296,6.0,20.0,40,0.00,,,0.00,Weather View 32 v70,2013-07-10 00:57:00,
2013-07-09 18:02:00,88.0,59.8,29.88,WNW,301,4.0,20.0,39,0.00,,,0.00,Weather View 32 v70,2013-07-10 01:02:00,
2013-07-09 18:07:00,88.0,59.8,29.88,West,274,7.0,20.0,39,0.00,,,0.00,Weather View 32 v70,2013-07-10 01:07:00,
2013-07-09 18:12:00,87.6,60.2,29.88,WNW,296,7.0,20.0,40,0.00,,,0.00,Weather View 32 v70,2013-07-10 01:12:00,
2013-07-09 18:17:00,87.6,59.5,29.88,West,261,8.0,20.0,39,0.00,,,0.00,Weather View 32 v70,2013-07-10 01:17:00,
2013-07-09 18:22:00,87.6,58.8,29.88,West,277,7.0,20.0,38,0.00,,,0.00,Weather View 32 v70,2013-07-10 01:22:00,
2013-07-09 18:27:00,87.4,58.6,29.88,WNW,299,2.0,20.0,38,0.00,,,0.00,Weather View 32 v70,2013-07-10 01:27:00,
2013-07-09 18:32:00,87.4,58.6,29.88,West,270,5.0,20.0,38,0.00,,,0.00,Weather View 32 v70,2013-07-10 01:32:00,
2013-07-09 18:37:00,87.4,57.8,29.88,SW,221,9.0,16.0,37,0.00,,,0.00,Weather View 32 v70,2013-07-10 01:37:00,
2013-07-09 18:42:00,87.4,56.3,29.88,NW,314,6.0,16.0,35,0.00,,,0.00,Weather View 32 v70,2013-07-10 01:42:00,
2013-07-09 18:47:00,87.4,57.1,29.88,West,270,6.0,16.0,36,0.00,,,0.00,Weather View 32 v70,2013-07-10 01:47:00,
2013-07-09 18:52:00,87.2,56.9,29.88,WSW,256,5.0,16.0,36,0.00,,,0.00,Weather View 32 v70,2013-07-10 01:52:00,
2013-07-09 18:57:00,86.7,57.2,29.88,West,261,3.0,16.0,37,0.00,,,0.00,Weather View 32 v70,2013-07-10 01:57:00,
2013-07-09 19:02:00,86.7,57.2,29.88,WNW,290,6.0,16.0,37,0.00,,,0.00,Weather View 32 v70,2013-07-10 02:02:00,
2013-07-09 19:07:00,86.5,57.0,29.88,WNW,291,0.0,16.0,37,0.00,,,0.00,Weather View 32 v70,2013-07-10 02:07:00,
2013-07-09 19:12:00,86.3,56.9,29.88,WNW,291,2.0,15.0,37,0.00,,,0.00,Weather View 32 v70,2013-07-10 02:12:00,
2013-07-09 19:17:00,86.3,56.9,29.88,WNW,302,6.0,15.0,37,0.00,,,0.00,Weather View 32 v70,2013-07-10 02:17:00,
2013-07-09 19:22:00,86.1,56.7,29.88,WSW,253,3.0,15.0,37,0.00,,,0.00,Weather View 32 v70,2013-07-10 02:22:00,
2013-07-09 19:27:00,85.9,56.5,29.88,WNW,301,6.0,15.0,37,0.00,,,0.00,Weather View 32 v70,2013-07-10 02:27:00,
2013-07-09 19:32:00,85.7,56.3,29.88,WNW,288,4.0,15.0,37,0.00,,,0.00,Weather View 32 v70,2013-07-10 02:32:00,
2013-07-09 19:37:00,85.5,56.2,29.88,West,261,2.0,15.0,37,0.00,,,0.00,Weather View 32 v70,2013-07-10 02:37:00,
2013-07-09 19:42:00,85.3,56.0,29.88,WNW,284,5.0,15.0,37,0.00,,,0.00,Weather View 32 v70,2013-07-10 02:42:00,
2013-07-09 19:47:00,85.1,55.8,29.88,WNW,282,3.0,15.0,37,0.00,,,0.00,Weather View 32 v70,2013-07-10 02:47:00,
2013-07-09 19:52:00,84.9,56.4,29.88,WNW,291,2.0,15.0,38,0.00,,,0.00,Weather View 32 v70,2013-07-10 02:52:00,
2013-07-09 19:57:00,84.7,56.2,29.88,WSW,251,2.0,15.0,38,0.00,,,0.00,Weather View 32 v70,2013-07-10 02:57:00,
2013-07-09 20:02:00,84.5,56.7,29.88,West,279,9.0,15.0,39,0.00,,,0.00,Weather View 32 v70,2013-07-10 03:02:00,
2013-07-09 20:07:00,84.3,56.6,29.89,WNW,294,2.0,15.0,39,0.00,,,0.00,Weather View 32 v70,2013-07-10 03:07:00,
2013-07-09 20:12:00,84.0,57.0,29.89,WNW,293,3.0,15.0,40,0.00,,,0.00,Weather View 32 v70,2013-07-10 03:12:00,
2013-07-09 20:15:00,83.8,56.8,29.89,NW,313,2.0,15.0,40,0.00,,,0.00,Weather View 32 v70,2013-07-10 03:15:00,
2013-07-09 20:17:00,83.8,56.8,29.89,WNW,300,3.0,15.0,40,0.00,,,0.00,Weather View 32 v70,2013-07-10 03:17:00,
2013-07-09 20:30:00,82.8,56.6,29.89,WNW,292,8.0,15.0,41,0.00,,,0.00,Weather View 32 v70,2013-07-10 03:30:00,
2013-07-09 20:35:00,82.4,56.9,29.89,NW,311,8.0,15.0,42,0.00,,,0.00,Weather View 32 v70,2013-07-10 03:35:00,
2013-07-09 20:40:00,82.0,56.6,29.89,West,273,2.0,15.0,42,0.00,,,0.00,Weather View 32 v70,2013-07-10 03:40:00,
2013-07-09 20:45:00,81.8,57.0,29.89,WNW,290,3.0,14.0,43,0.00,,,0.00,Weather View 32 v70,2013-07-10 03:45:00,
2013-07-09 20:50:00,81.6,56.9,29.89,WNW,288,5.0,15.0,43,0.00,,,0.00,Weather View 32 v70,2013-07-10 03:50:00,
2013-07-09 20:55:00,81.4,56.7,29.89,West,267,3.0,15.0,43,0.00,,,0.00,Weather View 32 v70,2013-07-10 03:55:00,
2013-07-09 21:00:00,81.2,56.5,29.89,WNW,286,5.0,15.0,43,0.00,,,0.00,Weather View 32 v70,2013-07-10 04:00:00,
2013-07-09 21:01:00,81.2,56.5,29.89,WSW,256,5.0,15.0,43,0.00,,,0.00,Weather View 32 v70,2013-07-10 04:01:00,
2013-07-09 21:06:00,81.2,56.5,29.89,NW,306,14.0,15.0,43,0.00,,,0.00,Weather View 32 v70,2013-07-10 04:06:00,
2013-07-09 21:11:00,81.1,57.0,29.89,WNW,286,7.0,15.0,44,0.00,,,0.00,Weather View 32 v70,2013-07-10 04:11:00,
2013-07-09 21:16:00,81.1,57.0,29.89,WSW,241,5.0,18.0,44,0.00,,,0.00,Weather View 32 v70,2013-07-10 04:16:00,
2013-07-09 21:21:00,80.9,57.5,29.90,West,276,7.0,18.0,45,0.00,,,0.00,Weather View 32 v70,2013-07-10 04:21:00,
2013-07-09 21:26:00,80.7,57.3,29.90,WNW,283,2.0,18.0,45,0.00,,,0.00,Weather View 32 v70,2013-07-10 04:26:00,
2013-07-09 21:31:00,80.5,57.1,29.90,West,277,8.0,18.0,45,0.00,,,0.00,Weather View 32 v70,2013-07-10 04:31:00,
2013-07-09 21:36:00,80.5,57.7,29.90,North,0,4.0,18.0,46,0.00,,,0.00,Weather View 32 v70,2013-07-10 04:36:00,
2013-07-09 21:41:00,80.3,57.6,29.91,WNW,287,6.0,18.0,46,0.00,,,0.00,Weather View 32 v70,2013-07-10 04:41:00,
2013-07-09 21:46:00,80.1,58.0,29.91,WSW,254,5.0,18.0,47,0.00,,,0.00,Weather View 32 v70,2013-07-10 04:46:00,
2013-07-09 21:51:00,79.9,57.8,29.91,West,264,7.0,18.0,47,0.00,,,0.00,Weather View 32 v70,2013-07-10 04:51:00,
2013-07-09 21:56:00,79.6,58.1,29.92,WNW,296,3.0,18.0,48,0.00,,,0.00,Weather View 32 v70,2013-07-10 04:56:00,
2013-07-09 22:01:00,79.4,58.5,29.92,NW,323,9.0,18.0,49,0.00,,,0.00,Weather View 32 v70,2013-07-10 05:01:00,
2013-07-09 22:06:00,79.0,58.1,29.92,West,271,3.0,18.0,49,0.00,,,0.00,Weather View 32 v70,2013-07-10 05:06:00,
2013-07-09 22:11:00,79.0,58.1,29.92,West,276,2.0,18.0,49,0.00,,,0.00,Weather View 32 v70,2013-07-10 05:11:00,
2013-07-09 22:16:00,78.8,58.5,29.93,West,275,6.0,18.0,50,0.00,,,0.00,Weather View 32 v70,2013-07-10 05:16:00,
2013-07-09 22:21:00,78.6,58.3,29.93,West,260,4.0,17.0,50,0.00,,,0.00,Weather View 32 v70,2013-07-10 05:21:00,
2013-07-09 22:26:00,78.5,58.8,29.93,NW,311,0.0,17.0,51,0.00,,,0.00,Weather View 32 v70,2013-07-10 05:26:00,
2013-07-09 22:31:00,78.1,58.4,29.93,West,273,1.0,17.0,51,0.00,,,0.00,Weather View 32 v70,2013-07-10 05:31:00,
2013-07-09 22:36:00,77.9,58.8,29.93,WNW,285,7.0,17.0,52,0.00,,,0.00,Weather View 32 v70,2013-07-10 05:36:00,
2013-07-09 22:41:00,77.7,58.6,29.93,West,274,4.0,16.0,52,0.00,,,0.00,Weather View 32 v70,2013-07-10 05:41:00,
2013-07-09 22:46:00,77.6,59.1,29.93,West,275,7.0,15.0,53,0.00,,,0.00,Weather View 32 v70,2013-07-10 05:46:00,
2013-07-09 22:51:00,77.2,58.7,29.93,West,263,0.0,15.0,53,0.00,,,0.00,Weather View 32 v70,2013-07-10 05:51:00,
2013-07-09 22:56:00,77.0,59.0,29.93,West,269,1.0,15.0,54,0.00,,,0.00,Weather View 32 v70,2013-07-10 05:56:00,
2013-07-09 23:01:00,76.8,58.8,29.93,WSW,253,4.0,15.0,54,0.00,,,0.00,Weather View 32 v70,2013-07-10 06:01:00,
2013-07-09 23:06:00,76.7,58.7,29.93,West,262,4.0,15.0,54,0.00,,,0.00,Weather View 32 v70,2013-07-10 06:06:00,
2013-07-09 23:11:00,76.5,58.6,29.94,WSW,253,4.0,15.0,54,0.00,,,0.00,Weather View 32 v70,2013-07-10 06:11:00,
2013-07-09 23:16:00,76.5,58.6,29.94,WSW,256,0.0,15.0,54,0.00,,,0.00,Weather View 32 v70,2013-07-10 06:16:00,
2013-07-09 23:21:00,76.5,58.6,29.94,West,276,3.0,15.0,54,0.00,,,0.00,Weather View 32 v70,2013-07-10 06:21:00,
2013-07-09 23:26:00,76.3,58.4,29.93,West,277,4.0,14.0,54,0.00,,,0.00,Weather View 32 v70,2013-07-10 06:26:00,
2013-07-09 23:31:00,76.1,58.7,29.94,West,271,1.0,14.0,55,0.00,,,0.00,Weather View 32 v70,2013-07-10 06:31:00,
2013-07-09 23:36:00,76.0,58.6,29.94,West,267,6.0,14.0,55,0.00,,,0.00,Weather View 32 v70,2013-07-10 06:36:00,
2013-07-09 23:41:00,76.0,58.6,29.94,West,267,1.0,14.0,55,0.00,,,0.00,Weather View 32 v70,2013-07-10 06:41:00,
2013-07-09 23:46:00,75.8,58.4,29.94,WSW,252,4.0,14.0,55,0.00,,,0.00,Weather View 32 v70,2013-07-10 06:46:00,
2013-07-09 23:51:00,75.6,58.2,29.94,WSW,244,9.0,14.0,55,0.00,,,0.00,Weather View 32 v70,2013-07-10 06:51:00,
2013-07-09 23:56:00,75.6,58.7,29.94,West,280,6.0,14.0,56,0.00,,,0.00,Weather View 32 v70,2013-07-10 06:56:00,